Time;durP1;ratioP1;P1;durP2;ratioP2;P2;SDS_P1;SDS_P2;PMS_P1;PMS_P2;Temp;Humidity;BMP_temperature;BMP_pressure;BME280_temperature;BME280_humidity;BME280_pressure;Samples;Min_cycle;Max_cycle;Signal;HPM_P1;HPM_P2
2023/01/11 00:01:02;;;;;;;3.97;1.75;;;;;;;;;;5035313;28;20049;-79
2023/01/11 00:03:48;;;;;;;4.03;2.08;;;;;;;;;;5041445;28;20504;-78
2023/01/11 00:06:32;;;;;;;2.40;1.80;;;;;;;;;;5042686;28;20392;-77
2023/01/11 00:09:19;;;;;;;2.40;2.00;;;;;;;;;;5042523;28;20045;-78
2023/01/11 00:12:11;;;;;;;4.15;1.80;;;;;;;;;;5036165;28;20041;-80
2023/01/11 00:14:57;;;;;;;3.05;1.83;;;;;;;;;;5042051;28;20042;-78
2023/01/11 00:17:42;;;;;;;4.63;2.00;;;;;;;;;;5036250;28;20057;-77
2023/01/11 00:20:28;;;;;;;2.85;1.90;;;;;;;;;;5042677;28;20053;-78
2023/01/11 00:23:14;;;;;;;2.85;2.17;;;;;;;;;;5035642;28;20041;-77
2023/01/11 00:26:10;;;;;;;3.45;1.80;;;;;;;;;;5035945;28;20049;-77
2023/01/11 00:28:56;;;;;;;3.75;1.95;;;;;;;;;;5042560;28;20049;-77
2023/01/11 00:31:42;;;;;;;4.95;2.30;;;;;;;;;;5042480;28;20046;-78
2023/01/11 00:34:28;;;;;;;3.33;1.95;;;;;;;;;;5054358;28;20045;-78
2023/01/11 00:37:13;;;;;;;1.40;1.20;;;;;;;;;;5062226;28;20476;-78
2023/01/11 00:39:59;;;;;;;3.13;1.70;;;;;;;;;;5062690;28;20045;-77
2023/01/11 00:49:03;;;;;;;3.42;2.00;;;;;;;;;;5024953;28;20052;-79
2023/01/11 00:51:49;;;;;;;4.00;2.47;;;;;;;;;;5055706;28;20504;-78
2023/01/11 00:54:35;;;;;;;4.30;2.25;;;;;;;;;;5061639;28;20071;-78
2023/01/11 00:57:20;;;;;;;2.90;1.90;;;;;;;;;;5061780;28;20045;-78
2023/01/11 01:00:06;;;;;;;3.03;1.20;;;;;;;;;;5055281;28;20053;-77
2023/01/11 01:02:57;;;;;;;4.20;1.80;;;;;;;;;;5057237;28;20049;-78
2023/01/11 01:05:42;;;;;;;4.53;1.40;;;;;;;;;;5061767;28;20053;-77
2023/01/11 01:08:27;;;;;;;4.70;1.83;;;;;;;;;;5061214;28;20041;-78
2023/01/11 01:11:12;;;;;;;4.40;2.20;;;;;;;;;;5061810;28;20392;-78
2023/01/11 01:17:06;;;;;;;6.07;2.75;;;;;;;;;;5061431;28;20048;-80
2023/01/11 01:19:52;;;;;;;3.22;1.85;;;;;;;;;;5054680;28;20048;-79
2023/01/11 01:22:37;;;;;;;2.55;1.42;;;;;;;;;;5061430;28;20053;-80
2023/01/11 01:25:23;;;;;;;5.78;1.55;;;;;;;;;;5061405;28;20045;-79
2023/01/11 01:28:07;;;;;;;2.05;1.48;;;;;;;;;;5061146;28;20045;-79
2023/01/11 01:30:52;;;;;;;1.48;1.05;;;;;;;;;;5054516;28;20045;-80
2023/01/11 01:33:38;;;;;;;1.33;1.15;;;;;;;;;;5061075;28;20045;-77
2023/01/11 01:36:24;;;;;;;2.55;1.45;;;;;;;;;;5061430;28;20052;-78
2023/01/11 01:39:11;;;;;;;2.83;1.23;;;;;;;;;;5045739;28;20407;-79
2023/01/11 01:41:57;;;;;;;2.75;1.27;;;;;;;;;;5061759;28;20053;-79
2023/01/11 01:44:53;;;;;;;2.55;1.52;;;;;;;;;;5061461;28;20500;-78
2023/01/11 01:47:42;;;;;;;6.60;2.03;;;;;;;;;;5061065;28;20045;-79
2023/01/11 01:50:35;;;;;;;5.07;1.75;;;;;;;;;;5061076;28;20041;-80
2023/01/11 01:53:25;;;;;;;0.93;0.93;;;;;;;;;;5060866;28;20053;-79
2023/01/11 01:56:17;;;;;;;1.45;1.20;;;;;;;;;;5061116;28;20049;-80
2023/01/11 01:59:07;;;;;;;1.30;1.20;;;;;;;;;;5061056;28;20494;-80
2023/01/11 02:01:53;;;;;;;0.88;0.88;;;;;;;;;;5059482;28;20467;-78
2023/01/11 02:04:41;;;;;;;1.00;0.90;;;;;;;;;;5063150;28;20053;-79
2023/01/11 02:07:32;;;;;;;1.85;1.35;;;;;;;;;;5058302;28;20040;-80
2023/01/11 02:10:20;;;;;;;2.55;1.83;;;;;;;;;;5080111;28;20044;-77
2023/01/11 02:13:09;;;;;;;3.97;2.15;;;;;;;;;;5074362;28;20045;-78
2023/01/11 02:16:07;;;;;;;3.45;1.77;;;;;;;;;;5067018;28;20049;-78
2023/01/11 02:18:55;;;;;;;2.97;1.83;;;;;;;;;;5060520;28;20052;-81
2023/01/11 02:21:54;;;;;;;6.15;2.75;;;;;;;;;;5060265;28;20053;-78
2023/01/11 02:25:11;;;;;;;5.90;2.75;;;;;;;;;;5060977;28;20045;-79
2023/01/11 02:27:57;;;;;;;5.18;2.35;;;;;;;;;;5053646;28;20425;-78
2023/01/11 02:31:00;;;;;;;4.15;2.13;;;;;;;;;;5060490;28;20044;-78
2023/01/11 02:34:07;;;;;;;4.50;2.20;;;;;;;;;;5060425;28;20052;-78
2023/01/11 02:37:06;;;;;;;3.70;1.88;;;;;;;;;;5060296;28;20476;-79
2023/01/11 02:40:15;;;;;;;3.35;2.05;;;;;;;;;;5060343;28;20037;-79
2023/01/11 02:46:31;;;;;;;2.72;1.55;;;;;;;;;;5060275;28;20053;-79
2023/01/11 02:49:25;;;;;;;2.35;1.80;;;;;;;;;;5053175;28;20395;-79
2023/01/11 02:52:21;;;;;;;2.35;1.63;;;;;;;;;;5060458;28;20468;-79
2023/01/11 02:55:09;;;;;;;5.40;2.65;;;;;;;;;;5059949;28;20041;-79
2023/01/11 02:58:01;;;;;;;4.28;2.78;;;;;;;;;;5060212;28;20049;-79
2023/01/11 03:00:48;;;;;;;2.22;1.58;;;;;;;;;;5060148;28;20048;-78
2023/01/11 03:03:33;;;;;;;3.05;1.55;;;;;;;;;;5053887;28;20488;-79
2023/01/11 03:06:30;;;;;;;1.65;1.40;;;;;;;;;;5059847;28;20045;-79
2023/01/11 03:09:27;;;;;;;3.13;1.30;;;;;;;;;;5059867;28;20475;-79
2023/01/11 03:12:55;;;;;;;1.55;1.20;;;;;;;;;;5062188;28;20045;-80
2023/01/11 03:16:08;;;;;;;1.17;1.02;;;;;;;;;;5060689;28;20048;-80
2023/01/11 03:19:09;;;;;;;2.40;1.08;;;;;;;;;;5061536;28;20056;-78
2023/01/11 03:22:02;;;;;;;1.58;1.35;;;;;;;;;;5054372;28;20041;-80
2023/01/11 03:24:56;;;;;;;2.78;1.55;;;;;;;;;;5045642;28;20049;-80
2023/01/11 03:28:21;;;;;;;2.15;1.60;;;;;;;;;;5060095;28;20036;-80
2023/01/11 03:31:24;;;;;;;2.35;1.33;;;;;;;;;;5052246;28;20491;-80
2023/01/11 03:34:21;;;;;;;1.30;1.20;;;;;;;;;;5053167;28;20399;-80
2023/01/11 03:37:16;;;;;;;3.35;1.95;;;;;;;;;;5053468;28;20037;-80
2023/01/11 03:40:43;;;;;;;5.50;2.30;;;;;;;;;;5063503;28;20053;-80
2023/01/11 03:43:32;;;;;;;5.60;1.88;;;;;;;;;;4995883;28;20534;-80
2023/01/11 03:46:26;;;;;;;2.65;1.30;;;;;;;;;;5047684;28;20053;-79
2023/01/11 03:49:36;;;;;;;1.92;1.40;;;;;;;;;;5063482;28;20049;-81
2023/01/11 03:52:27;;;;;;;1.90;1.40;;;;;;;;;;5056997;28;20061;-81
2023/01/11 03:55:15;;;;;;;1.23;1.13;;;;;;;;;;5063101;28;20044;-78
2023/01/11 03:58:00;;;;;;;1.20;1.10;;;;;;;;;;5063283;28;20045;-81
2023/01/11 04:00:47;;;;;;;1.10;1.00;;;;;;;;;;5062698;28;20399;-80
2023/01/11 04:03:32;;;;;;;2.35;1.00;;;;;;;;;;5057276;28;20045;-81
2023/01/11 04:06:18;;;;;;;1.17;1.02;;;;;;;;;;5062514;28;20061;-79
2023/01/11 04:09:04;;;;;;;0.82;0.82;;;;;;;;;;5063093;28;20399;-80
2023/01/11 04:11:49;;;;;;;1.27;1.00;;;;;;;;;;5063129;28;20048;-80
2023/01/11 04:14:35;;;;;;;1.90;1.73;;;;;;;;;;5062437;28;20045;-79
2023/01/11 04:17:20;;;;;;;1.00;1.00;;;;;;;;;;5056621;28;20049;-79
2023/01/11 04:20:10;;;;;;;0.90;0.90;;;;;;;;;;5055509;28;20045;-78
2023/01/11 04:22:55;;;;;;;0.95;0.95;;;;;;;;;;5056066;28;20049;-79
2023/01/11 04:25:41;;;;;;;1.88;0.93;;;;;;;;;;5062888;28;20456;-79
2023/01/11 04:28:27;;;;;;;1.38;1.10;;;;;;;;;;5062270;28;20471;-79
2023/01/11 04:31:12;;;;;;;1.45;1.10;;;;;;;;;;5055948;28;20041;-78
2023/01/11 04:33:57;;;;;;;1.67;1.20;;;;;;;;;;5062492;28;20049;-79
2023/01/11 04:36:43;;;;;;;1.13;1.00;;;;;;;;;;5055768;28;20391;-79
2023/01/11 04:39:28;;;;;;;1.42;1.30;;;;;;;;;;5062574;28;20391;-78
2023/01/11 04:42:20;;;;;;;10.60;7.55;;;;;;;;;;5048104;28;20378;-78
2023/01/11 04:45:06;;;;;;;2.38;2.08;;;;;;;;;;5040017;28;20053;-79
2023/01/11 04:47:55;;;;;;;7.93;5.28;;;;;;;;;;5050368;28;20041;-78
2023/01/11 04:50:40;;;;;;;3.90;2.50;;;;;;;;;;5053372;28;20056;-78
2023/01/11 04:53:25;;;;;;;1.60;1.50;;;;;;;;;;5050705;28;20045;-79
2023/01/11 04:56:12;;;;;;;6.50;3.47;;;;;;;;;;5037200;28;20041;-79
2023/01/11 04:58:57;;;;;;;5.82;3.03;;;;;;;;;;5035342;28;20037;-79
2023/01/11 05:01:42;;;;;;;14.02;7.25;;;;;;;;;;5040653;28;20381;-80
2023/01/11 05:04:28;;;;;;;3.97;2.45;;;;;;;;;;5022931;28;20046;-78
2023/01/11 05:07:13;;;;;;;17.42;7.72;;;;;;;;;;5022221;28;20404;-79
2023/01/11 05:09:59;;;;;;;4.13;2.97;;;;;;;;;;5007086;28;20049;-80
2023/01/11 05:12:45;;;;;;;8.75;3.30;;;;;;;;;;5021971;28;20061;-80
2023/01/11 05:15:30;;;;;;;5.10;3.20;;;;;;;;;;5015133;28;20042;-79
2023/01/11 05:18:16;;;;;;;19.08;9.68;;;;;;;;;;5015118;28;20429;-79
2023/01/11 05:21:03;;;;;;;16.80;8.50;;;;;;;;;;5015464;28;20049;-80
2023/01/11 05:23:48;;;;;;;39.90;18.50;;;;;;;;;;5021394;28;20049;-80
2023/01/11 05:26:36;;;;;;;14.85;6.07;;;;;;;;;;5041551;28;20049;-79
2023/01/11 05:29:22;;;;;;;19.23;9.30;;;;;;;;;;5019060;28;20053;-80
2023/01/11 05:32:07;;;;;;;85.15;38.40;;;;;;;;;;5030028;28;20037;-79
2023/01/11 05:34:52;;;;;;;22.63;10.43;;;;;;;;;;5029030;28;20481;-79
2023/01/11 05:37:37;;;;;;;13.88;8.30;;;;;;;;;;5024783;28;20049;-79
2023/01/11 05:40:22;;;;;;;6.78;3.20;;;;;;;;;;5039267;28;20045;-79
2023/01/11 05:43:07;;;;;;;5.53;3.65;;;;;;;;;;5020290;28;20046;-79
2023/01/11 05:45:53;;;;;;;11.68;7.70;;;;;;;;;;5020396;28;20054;-80
2023/01/11 05:48:38;;;;;;;10.10;5.60;;;;;;;;;;5014769;28;20042;-80
2023/01/11 05:51:25;;;;;;;7.18;4.45;;;;;;;;;;5019631;28;20053;-79
2023/01/11 05:54:12;;;;;;;12.55;7.10;;;;;;;;;;5020715;28;20057;-79
2023/01/11 05:56:58;;;;;;;8.82;4.93;;;;;;;;;;5014281;28;20038;-80
2023/01/11 05:59:44;;;;;;;7.57;4.97;;;;;;;;;;5021164;28;20058;-79
2023/01/11 06:02:29;;;;;;;8.32;5.20;;;;;;;;;;5017758;28;20054;-80
2023/01/11 06:05:16;;;;;;;6.85;5.20;;;;;;;;;;5020833;28;20049;-79
2023/01/11 06:08:00;;;;;;;8.30;6.35;;;;;;;;;;5014396;28;20049;-80
2023/01/11 06:10:50;;;;;;;11.30;6.47;;;;;;;;;;5021202;28;20042;-80
2023/01/11 06:13:36;;;;;;;6.10;3.90;;;;;;;;;;5014009;28;20042;-80
2023/01/11 06:16:22;;;;;;;11.27;6.20;;;;;;;;;;5020500;28;20042;-79
2023/01/11 06:19:10;;;;;;;9.82;5.18;;;;;;;;;;5020517;28;20050;-79
2023/01/11 06:21:55;;;;;;;7.25;4.35;;;;;;;;;;5020891;28;20404;-81
2023/01/11 06:24:41;;;;;;;3.53;2.65;;;;;;;;;;5020970;28;20049;-80
2023/01/11 06:27:26;;;;;;;4.30;2.83;;;;;;;;;;5013950;28;20046;-80
2023/01/11 06:30:12;;;;;;;9.15;4.40;;;;;;;;;;5020557;28;20050;-80
2023/01/11 06:33:06;;;;;;;14.57;8.15;;;;;;;;;;5013701;28;20042;-80
2023/01/11 06:35:52;;;;;;;14.27;6.82;;;;;;;;;;5020394;28;20046;-80
2023/01/11 06:38:38;;;;;;;12.20;6.35;;;;;;;;;;5019472;28;20485;-80
2023/01/11 06:41:23;;;;;;;6.47;4.22;;;;;;;;;;5020490;28;20061;-82
2023/01/11 06:44:09;;;;;;;7.50;4.65;;;;;;;;;;5020176;28;20037;-80
2023/01/11 06:46:54;;;;;;;6.68;3.95;;;;;;;;;;5020224;28;20046;-80
2023/01/11 06:49:39;;;;;;;4.05;3.20;;;;;;;;;;5014021;28;20050;-79
2023/01/11 06:52:25;;;;;;;3.95;2.90;;;;;;;;;;5020423;28;20042;-80
2023/01/11 06:55:10;;;;;;;8.63;5.05;;;;;;;;;;5020279;28;20045;-79
2023/01/11 06:57:56;;;;;;;22.75;9.57;;;;;;;;;;5020196;28;20472;-80
2023/01/11 07:00:42;;;;;;;8.45;5.22;;;;;;;;;;5013918;28;20050;-80
2023/01/11 07:03:27;;;;;;;12.35;6.50;;;;;;;;;;5013636;28;20050;-80
2023/01/11 07:06:13;;;;;;;10.50;5.40;;;;;;;;;;5013456;28;20049;-80
2023/01/11 07:08:58;;;;;;;12.98;7.00;;;;;;;;;;5020885;28;20405;-80
2023/01/11 07:11:44;;;;;;;12.70;7.20;;;;;;;;;;5014967;28;20042;-80
2023/01/11 07:20:31;;;;;;;5.85;3.33;;;;;;;;;;4813798;27;20055;-86
2023/01/11 07:23:16;;;;;;;5.85;4.00;;;;;;;;;;4920735;29;20044;-86
2023/01/11 07:26:02;;;;;;;10.02;6.05;;;;;;;;;;4920255;29;20499;-86
2023/01/11 07:28:47;;;;;;;10.38;6.97;;;;;;;;;;4920547;29;20422;-86
2023/01/11 07:31:32;;;;;;;9.55;5.72;;;;;;;;;;4912774;29;20056;-85
2023/01/11 07:34:18;;;;;;;5.93;3.83;;;;;;;;;;4912604;29;20502;-85
2023/01/11 07:37:04;;;;;;;9.55;5.25;;;;;;;;;;4920213;29;20044;-85
2023/01/11 07:39:49;;;;;;;22.15;10.30;;;;;;;;;;4920309;29;20040;-86
2023/01/11 07:45:44;;;;;;;11.77;6.40;;;;;;;;;;4919337;29;20498;-87
2023/01/11 07:48:29;;;;;;;13.40;7.13;;;;;;;;;;4925275;29;20048;-86
2023/01/11 07:51:19;;;;;;;17.75;9.40;;;;;;;;;;4911247;29;20052;-86
2023/01/11 07:54:05;;;;;;;17.73;9.18;;;;;;;;;;4905810;29;20048;-88
2023/01/11 07:56:50;;;;;;;12.32;7.38;;;;;;;;;;4898352;29;20044;-85
2023/01/11 07:59:36;;;;;;;13.35;7.15;;;;;;;;;;4919877;29;20052;-86
2023/01/11 08:02:21;;;;;;;48.75;24.00;;;;;;;;;;4918880;29;20056;-86
2023/01/11 08:05:07;;;;;;;17.75;9.77;;;;;;;;;;4919238;29;20052;-86
2023/01/11 08:07:52;;;;;;;41.47;23.50;;;;;;;;;;4919840;29;20052;-86
2023/01/11 08:10:38;;;;;;;13.85;9.00;;;;;;;;;;4919704;29;20043;-85
2023/01/11 08:16:27;;;;;;;7.38;4.45;;;;;;;;;;4919739;29;20495;-87
2023/01/11 08:19:12;;;;;;;13.30;7.95;;;;;;;;;;4905456;29;20078;-85
2023/01/11 08:21:57;;;;;;;17.85;11.35;;;;;;;;;;4905782;29;20052;-86
2023/01/11 08:24:43;;;;;;;11.20;6.50;;;;;;;;;;4918368;29;20052;-86
2023/01/11 08:27:28;;;;;;;14.38;8.48;;;;;;;;;;4919767;29;20407;-85
2023/01/11 08:30:14;;;;;;;9.20;6.00;;;;;;;;;;4919763;29;20048;-85
2023/01/11 08:33:00;;;;;;;13.68;7.93;;;;;;;;;;4919901;29;20052;-85
2023/01/11 08:35:46;;;;;;;12.02;6.63;;;;;;;;;;4919528;29;20398;-85
2023/01/11 08:38:31;;;;;;;11.23;6.90;;;;;;;;;;4921071;29;20498;-85
2023/01/11 08:41:17;;;;;;;12.13;6.50;;;;;;;;;;4919387;29;20044;-84
2023/01/11 08:44:02;;;;;;;14.07;5.72;;;;;;;;;;4904979;29;20040;-85
2023/01/11 08:46:47;;;;;;;14.48;7.68;;;;;;;;;;4919363;29;20056;-85
2023/01/11 08:49:33;;;;;;;11.13;6.78;;;;;;;;;;4919540;29;20048;-84
2023/01/11 08:52:20;;;;;;;16.60;8.85;;;;;;;;;;4919295;29;20048;-84
2023/01/11 08:55:06;;;;;;;13.90;8.63;;;;;;;;;;4919139;29;20494;-84
2023/01/11 08:57:52;;;;;;;14.63;7.90;;;;;;;;;;4904723;29;20044;-86
2023/01/11 09:00:37;;;;;;;12.75;8.32;;;;;;;;;;4919568;29;20040;-86
2023/01/11 09:03:23;;;;;;;14.85;8.18;;;;;;;;;;4910765;29;20048;-84
2023/01/11 09:06:11;;;;;;;12.15;8.48;;;;;;;;;;4920125;29;20486;-82
2023/01/11 09:08:58;;;;;;;11.10;7.68;;;;;;;;;;4910880;29;20044;-86
2023/01/11 09:12:26;;;;;;;20.10;11.07;;;;;;;;;;4918664;29;20498;-84
2023/01/11 09:15:45;;;;;;;13.85;7.78;;;;;;;;;;4915777;29;20056;-88
2023/01/11 09:18:34;;;;;;;17.02;8.68;;;;;;;;;;4919751;29;20048;-83
2023/01/11 09:21:50;;;;;;;11.35;6.80;;;;;;;;;;4918140;29;20438;-84
2023/01/11 09:24:36;;;;;;;14.50;8.13;;;;;;;;;;4918636;29;20052;-83
2023/01/11 09:27:21;;;;;;;14.43;7.20;;;;;;;;;;4925024;29;20491;-83
2023/01/11 09:30:08;;;;;;;11.35;7.03;;;;;;;;;;4918370;29;20044;-83
2023/01/11 09:32:55;;;;;;;13.52;7.55;;;;;;;;;;4918291;29;20514;-82
2023/01/11 09:35:41;;;;;;;12.10;7.35;;;;;;;;;;4924447;29;20048;-83
2023/01/11 09:38:32;;;;;;;16.60;8.15;;;;;;;;;;4918377;29;20048;-82
2023/01/11 09:41:32;;;;;;;12.15;7.15;;;;;;;;;;4918918;29;20466;-82
2023/01/11 09:44:24;;;;;;;11.55;6.68;;;;;;;;;;4924515;29;20047;-81
2023/01/11 09:47:19;;;;;;;19.85;8.90;;;;;;;;;;4924358;29;20040;-82
2023/01/11 09:50:11;;;;;;;27.27;14.02;;;;;;;;;;4918098;29;20163;-84
2023/01/11 10:07:11;;;;;;;;;;;;;;;;;;;;;
2023/01/11 10:10:42;;;;;;;18.60;9.32;;;;;;;;;;4918247;29;20035;-84
2023/01/11 10:14:00;;;;;;;14.57;8.15;;;;;;;;;;4918080;29;20048;-83
2023/01/11 10:16:58;;;;;;;20.77;11.18;;;;;;;;;;4917866;29;20036;-83
2023/01/11 10:19:46;;;;;;;18.10;9.48;;;;;;;;;;4916052;29;20495;-80
2023/01/11 10:22:46;;;;;;;14.20;8.77;;;;;;;;;;4924043;29;20040;-79
2023/01/11 10:25:49;;;;;;;18.35;10.13;;;;;;;;;;4923720;29;20044;-85
2023/01/11 10:32:52;;;;;;;20.92;10.88;;;;;;;;;;4918213;29;20036;-80
2023/01/11 10:42:25;;;;;;;15.15;9.70;;;;;;;;;;4919392;29;20044;-82
2023/01/11 10:45:19;;;;;;;18.73;10.30;;;;;;;;;;4923568;29;20048;-79
2023/01/11 10:48:30;;;;;;;19.40;10.18;;;;;;;;;;4924416;29;20466;-82
2023/01/11 10:51:37;;;;;;;16.92;9.30;;;;;;;;;;4924256;29;20044;-79
2023/01/11 10:54:30;;;;;;;12.35;7.15;;;;;;;;;;4923473;29;20048;-79
2023/01/11 10:57:34;;;;;;;10.60;6.93;;;;;;;;;;4923191;29;20048;-83
2023/01/11 11:00:47;;;;;;;15.60;8.88;;;;;;;;;;4923161;29;20052;-83
2023/01/11 11:04:23;;;;;;;18.15;9.68;;;;;;;;;;4923312;29;20406;-78
2023/01/11 11:07:31;;;;;;;21.75;11.70;;;;;;;;;;4923020;29;20051;-80
2023/01/11 11:10:26;;;;;;;20.77;10.68;;;;;;;;;;4929673;29;20051;-83
2023/01/11 11:13:36;;;;;;;20.83;11.77;;;;;;;;;;4923917;29;20040;-88
2023/01/11 11:16:30;;;;;;;;;;;;;;;;;;4924814;29;20060;-85
2023/01/11 11:22:58;;;;;;;21.40;11.18;;;;;;;;;;4923157;29;20056;-84
2023/01/11 11:25:55;;;;;;;24.95;13.10;;;;;;;;;;4922418;29;20052;-84
2023/01/11 11:29:09;;;;;;;25.92;13.50;;;;;;;;;;4923530;29;20048;-79
2023/01/11 11:32:00;;;;;;;22.92;13.10;;;;;;;;;;4929900;29;20048;-78
2023/01/11 11:34:47;;;;;;;20.90;11.65;;;;;;;;;;4923036;29;20051;-78
2023/01/11 11:37:35;;;;;;;22.02;12.73;;;;;;;;;;4929227;29;20040;-78
2023/01/11 11:40:30;;;;;;;53.03;25.20;;;;;;;;;;4922965;29;20060;-82
2023/01/11 11:43:18;;;;;;;82.15;38.80;;;;;;;;;;4922908;29;20040;-78
2023/01/11 11:46:18;;;;;;;30.23;17.83;;;;;;;;;;4923150;29;20035;-81
2023/01/11 11:49:33;;;;;;;24.17;13.60;;;;;;;;;;4923658;29;20051;-84
2023/01/11 11:52:18;;;;;;;33.58;19.33;;;;;;;;;;4924999;29;20048;-85
2023/01/11 11:55:07;;;;;;;23.40;14.60;;;;;;;;;;4917237;29;20048;-83
2023/01/11 11:58:03;;;;;;;21.30;13.50;;;;;;;;;;4931151;29;20056;-84
2023/01/11 12:00:51;;;;;;;25.50;14.98;;;;;;;;;;4921096;29;20052;-80
2023/01/11 12:03:42;;;;;;;24.65;13.70;;;;;;;;;;4920123;29;20048;-84
2023/01/11 12:06:29;;;;;;;17.83;10.85;;;;;;;;;;4924067;29;20052;-86
2023/01/11 12:09:27;;;;;;;16.95;10.57;;;;;;;;;;4920073;29;20494;-80
2023/01/11 12:12:20;;;;;;;20.27;12.70;;;;;;;;;;4925803;29;20044;-80
2023/01/11 12:15:21;;;;;;;22.80;13.23;;;;;;;;;;4919832;29;20048;-80
2023/01/11 12:18:26;;;;;;;18.95;11.80;;;;;;;;;;4919385;29;20052;-81
2023/01/11 12:21:23;;;;;;;18.80;10.50;;;;;;;;;;4919058;29;20060;-84
2023/01/11 12:24:18;;;;;;;22.02;12.23;;;;;;;;;;4919422;29;20044;-82
2023/01/11 12:27:34;;;;;;;23.75;13.05;;;;;;;;;;4925733;29;20040;-83
2023/01/11 12:30:40;;;;;;;34.92;15.30;;;;;;;;;;4925944;29;20043;-83
2023/01/11 12:33:48;;;;;;;31.10;16.17;;;;;;;;;;4925585;29;20430;-81
2023/01/11 12:37:02;;;;;;;19.65;10.93;;;;;;;;;;4919891;29;20048;-81
2023/01/11 12:40:23;;;;;;;20.83;11.38;;;;;;;;;;4919024;29;20052;-82
2023/01/11 12:43:37;;;;;;;28.73;15.52;;;;;;;;;;4919861;29;20048;-82
2023/01/11 12:46:41;;;;;;;34.88;18.58;;;;;;;;;;4918605;29;20040;-83
2023/01/11 12:49:45;;;;;;;27.08;15.48;;;;;;;;;;4919418;29;20483;-82
2023/01/11 12:52:52;;;;;;;30.90;17.05;;;;;;;;;;4918589;29;20051;-82
2023/01/11 12:55:48;;;;;;;22.80;13.32;;;;;;;;;;4917995;29;20051;-81
2023/01/11 12:58:49;;;;;;;22.60;12.20;;;;;;;;;;4925097;29;20052;-81
2023/01/11 13:01:57;;;;;;;18.25;11.75;;;;;;;;;;4918574;29;20044;-82
2023/01/11 13:05:23;;;;;;;35.53;17.15;;;;;;;;;;4898232;29;20052;-82
2023/01/11 13:08:19;;;;;;;36.58;19.25;;;;;;;;;;4917477;29;20056;-84
2023/01/11 13:11:33;;;;;;;24.15;13.25;;;;;;;;;;4918699;29;20040;-82
2023/01/11 13:14:42;;;;;;;32.07;17.43;;;;;;;;;;4918511;29;20055;-81
2023/01/11 13:18:07;;;;;;;33.35;17.35;;;;;;;;;;4916556;29;20048;-83
2023/01/11 13:21:25;;;;;;;38.95;19.08;;;;;;;;;;4918818;29;20048;-83
2023/01/11 13:24:18;;;;;;;44.85;20.70;;;;;;;;;;4918632;29;20036;-83
2023/01/11 13:27:16;;;;;;;42.65;25.60;;;;;;;;;;4918272;29;20043;-83
2023/01/11 13:30:12;;;;;;;48.97;22.20;;;;;;;;;;4924660;29;20044;-81
2023/01/11 13:33:12;;;;;;;41.58;20.70;;;;;;;;;;4910634;29;20048;-82
2023/01/11 13:36:14;;;;;;;37.70;19.65;;;;;;;;;;4924547;29;20048;-81
2023/01/11 13:39:31;;;;;;;29.23;15.32;;;;;;;;;;4924728;29;20051;-81
2023/01/11 13:42:28;;;;;;;34.95;19.40;;;;;;;;;;4918174;29;20489;-83
2023/01/11 13:45:29;;;;;;;44.63;18.50;;;;;;;;;;4918192;29;20051;-82
2023/01/11 13:48:40;;;;;;;30.02;17.90;;;;;;;;;;4918534;29;20044;-84
2023/01/11 13:51:33;;;;;;;31.45;16.83;;;;;;;;;;4917892;29;20052;-84
2023/01/11 13:54:38;;;;;;;34.33;20.23;;;;;;;;;;4924219;29;20051;-80
2023/01/11 13:57:52;;;;;;;35.42;20.65;;;;;;;;;;4917281;29;20049;-84
2023/01/11 14:00:42;;;;;;;29.70;17.95;;;;;;;;;;4899099;29;20056;-80
2023/01/11 14:03:46;;;;;;;28.77;16.15;;;;;;;;;;4898852;29;20052;-84
2023/01/11 14:06:43;;;;;;;31.48;15.85;;;;;;;;;;4898669;29;20053;-83
2023/01/11 14:09:58;;;;;;;28.77;15.63;;;;;;;;;;4898890;29;20040;-82
2023/01/11 14:12:58;;;;;;;22.70;13.88;;;;;;;;;;4898526;29;20044;-83
2023/01/11 14:16:00;;;;;;;26.45;16.33;;;;;;;;;;4899576;29;20589;-81
2023/01/11 14:18:58;;;;;;;25.85;15.70;;;;;;;;;;4905030;29;20048;-81
2023/01/11 14:22:13;;;;;;;49.20;18.38;;;;;;;;;;4898588;29;20052;-81
2023/01/11 14:25:04;;;;;;;23.42;12.55;;;;;;;;;;4898477;29;20041;-81
2023/01/11 14:28:17;;;;;;;23.90;12.25;;;;;;;;;;4904843;29;20502;-83
2023/01/11 14:31:17;;;;;;;22.75;12.35;;;;;;;;;;4898558;29;20427;-84
2023/01/11 14:34:29;;;;;;;21.42;11.48;;;;;;;;;;4898342;29;20048;-85
2023/01/11 14:38:01;;;;;;;13.55;6.13;;;;;;;;;;4898388;29;20048;-82
2023/01/11 14:41:05;;;;;;;7.15;4.70;;;;;;;;;;4898302;29;20044;-82
2023/01/11 14:44:46;;;;;;;10.65;7.05;;;;;;;;;;4898990;29;20040;-81
2023/01/11 14:47:49;;;;;;;11.65;8.32;;;;;;;;;;4898156;29;20395;-84
2023/01/11 14:51:09;;;;;;;15.40;9.18;;;;;;;;;;4904952;29;20398;-84
2023/01/11 14:54:08;;;;;;;7.75;5.63;;;;;;;;;;4898536;29;20048;-83
2023/01/11 14:56:56;;;;;;;9.45;5.47;;;;;;;;;;4890326;29;20048;-84
2023/01/11 14:59:46;;;;;;;8.05;5.90;;;;;;;;;;4904662;29;20060;-82
2023/01/11 15:02:37;;;;;;;18.50;10.05;;;;;;;;;;4898009;29;20052;-81
2023/01/11 15:05:32;;;;;;;13.70;8.90;;;;;;;;;;4897906;29;20053;-84
2023/01/11 15:08:27;;;;;;;14.50;7.18;;;;;;;;;;4898071;29;20049;-83
2023/01/11 15:11:50;;;;;;;25.38;14.38;;;;;;;;;;4898026;29;20041;-82
2023/01/11 15:14:44;;;;;;;41.65;19.38;;;;;;;;;;4874819;29;20371;-82
2023/01/11 15:21:09;;;;;;;32.03;19.73;;;;;;;;;;4899281;29;20052;-83
2023/01/11 15:23:57;;;;;;;45.85;21.65;;;;;;;;;;4903565;29;20411;-81
2023/01/11 15:26:48;;;;;;;24.70;11.95;;;;;;;;;;4904045;29;20041;-82
2023/01/11 15:29:44;;;;;;;23.77;12.90;;;;;;;;;;4897840;29;20407;-82
2023/01/11 15:32:36;;;;;;;54.63;26.55;;;;;;;;;;4906545;29;20048;-82
2023/01/11 15:35:22;;;;;;;48.60;21.65;;;;;;;;;;4906978;29;20487;-80
2023/01/11 15:38:18;;;;;;;49.38;23.00;;;;;;;;;;4901217;29;20040;-87
2023/01/11 15:44:26;;;;;;;45.97;22.15;;;;;;;;;;4900911;29;20052;-83
2023/01/11 15:47:42;;;;;;;82.82;36.08;;;;;;;;;;4901695;29;20052;-85
2023/01/11 15:50:31;;;;;;;76.22;38.03;;;;;;;;;;4900319;29;20048;-81
2023/01/11 15:53:47;;;;;;;80.13;40.05;;;;;;;;;;4900945;29;20052;-81
2023/01/11 15:56:42;;;;;;;69.70;33.20;;;;;;;;;;4901358;29;20049;-83
2023/01/11 15:59:39;;;;;;;51.47;27.45;;;;;;;;;;4901076;29;20052;-83
2023/01/11 16:03:05;;;;;;;41.20;22.23;;;;;;;;;;4901359;29;20053;-83
2023/01/11 16:06:23;;;;;;;60.15;30.67;;;;;;;;;;4902594;29;20049;-84
2023/01/11 16:09:30;;;;;;;77.72;33.15;;;;;;;;;;4886214;29;20063;-86
2023/01/11 16:13:19;;;;;;;86.28;34.33;;;;;;;;;;4907438;29;20060;-80
2023/01/11 16:16:19;;;;;;;66.32;29.08;;;;;;;;;;4853192;29;20052;-84
2023/01/11 16:19:13;;;;;;;50.72;25.70;;;;;;;;;;4901446;29;20045;-82
2023/01/11 16:22:02;;;;;;;35.60;20.92;;;;;;;;;;4906999;29;20052;-82
2023/01/11 16:24:57;;;;;;;35.33;19.05;;;;;;;;;;4901245;29;20041;-85
2023/01/11 16:27:42;;;;;;;43.17;22.38;;;;;;;;;;4900679;29;20048;-85
2023/01/11 16:30:35;;;;;;;44.42;22.90;;;;;;;;;;4901266;29;20052;-83
2023/01/11 16:33:26;;;;;;;31.67;18.25;;;;;;;;;;4901130;29;20048;-85
2023/01/11 16:36:23;;;;;;;116.43;37.03;;;;;;;;;;4900700;29;20044;-85
2023/01/11 16:39:12;;;;;;;80.90;35.42;;;;;;;;;;4901061;29;20040;-84
2023/01/11 16:42:13;;;;;;;89.03;39.03;;;;;;;;;;4900323;29;20052;-84
2023/01/11 16:45:39;;;;;;;161.10;61.78;;;;;;;;;;4899583;29;20399;-85
2023/01/11 16:48:29;;;;;;;167.25;66.95;;;;;;;;;;4901115;29;20391;-86
2023/01/11 16:51:20;;;;;;;205.02;87.65;;;;;;;;;;4896724;29;20049;-85
2023/01/11 16:54:05;;;;;;;128.52;52.88;;;;;;;;;;4900734;29;20045;-83
2023/01/11 16:56:52;;;;;;;103.60;47.15;;;;;;;;;;4900086;29;20483;-82
2023/01/11 16:59:38;;;;;;;39.75;21.60;;;;;;;;;;4900312;29;20391;-82
2023/01/11 17:02:31;;;;;;;50.20;25.00;;;;;;;;;;4899008;29;20049;-84
2023/01/11 17:05:23;;;;;;;37.63;19.30;;;;;;;;;;4905480;29;20048;-83
2023/01/11 17:08:26;;;;;;;38.80;21.27;;;;;;;;;;4900471;29;20048;-85
2023/01/11 17:11:23;;;;;;;36.80;19.48;;;;;;;;;;4898447;29;20482;-83
2023/01/11 17:14:23;;;;;;;43.85;22.30;;;;;;;;;;4899912;29;20062;-82
2023/01/11 17:17:16;;;;;;;69.65;30.88;;;;;;;;;;4899697;29;20056;-84
2023/01/11 17:20:21;;;;;;;57.25;30.67;;;;;;;;;;4899576;29;20052;-82
2023/01/11 17:23:14;;;;;;;74.65;36.42;;;;;;;;;;4900427;29;20486;-84
2023/01/11 17:25:59;;;;;;;76.22;35.05;;;;;;;;;;4899486;29;20045;-83
2023/01/11 17:28:47;;;;;;;63.47;31.27;;;;;;;;;;4899483;29;20045;-84
2023/01/11 17:31:35;;;;;;;66.72;31.50;;;;;;;;;;4899379;29;20044;-83
2023/01/11 17:34:30;;;;;;;56.58;29.45;;;;;;;;;;4899655;29;20040;-83
2023/01/11 17:37:17;;;;;;;69.18;34.15;;;;;;;;;;4899579;29;20052;-83
2023/01/11 17:40:21;;;;;;;66.03;33.72;;;;;;;;;;4899311;29;20032;-83
2023/01/11 17:46:30;;;;;;;50.42;26.85;;;;;;;;;;4899106;29;20479;-84
2023/01/11 17:49:22;;;;;;;51.75;27.55;;;;;;;;;;4899196;29;20041;-84
2023/01/11 17:52:20;;;;;;;53.13;27.10;;;;;;;;;;4899259;29;20470;-84
2023/01/11 17:55:15;;;;;;;48.58;27.15;;;;;;;;;;4899048;29;20052;-82
2023/01/11 17:58:17;;;;;;;45.22;25.42;;;;;;;;;;4898568;29;20041;-82
2023/01/11 18:01:12;;;;;;;45.42;25.63;;;;;;;;;;4898793;29;20060;-83
2023/01/11 18:03:58;;;;;;;60.22;33.58;;;;;;;;;;4898361;29;20049;-84
2023/01/11 18:06:47;;;;;;;52.40;29.23;;;;;;;;;;4899076;29;20052;-83
2023/01/11 18:09:41;;;;;;;49.88;29.00;;;;;;;;;;4898286;29;20044;-83
2023/01/11 18:12:32;;;;;;;62.80;32.50;;;;;;;;;;4891793;29;20565;-83